sensor_id;sensor_type;location;lat;lon;timestamp;pressure;altitude;pressure_sealevel;temperature;humidity
79123;BME280;68526;44.600;26.032;2023-04-03T00:00:02;99811.84;;;8.22;79.44
79123;BME280;68526;44.600;26.032;2023-04-03T00:00:19;99809.91;;;8.22;79.51
79123;BME280;68526;44.600;26.032;2023-04-03T00:00:35;99810.72;;;8.23;79.20
79123;BME280;68526;44.600;26.032;2023-04-03T00:00:51;99807.97;;;8.23;79.27
79123;BME280;68526;44.600;26.032;2023-04-03T00:01:07;99811.84;;;8.22;79.39
79123;BME280;68526;44.600;26.032;2023-04-03T00:01:23;99814.56;;;8.22;79.33
79123;BME280;68526;44.600;26.032;2023-04-03T00:01:40;99809.44;;;8.20;79.14
79123;BME280;68526;44.600;26.032;2023-04-03T00:01:56;99818.41;;;8.21;79.24
79123;BME280;68526;44.600;26.032;2023-04-03T00:02:12;99817.94;;;8.19;79.38
79123;BME280;68526;44.600;26.032;2023-04-03T00:02:28;99814.41;;;8.18;79.43
79123;BME280;68526;44.600;26.032;2023-04-03T00:02:43;99810.03;;;8.17;79.75
79123;BME280;68526;44.600;26.032;2023-04-03T00:03:00;99812.78;;;8.17;79.56
79123;BME280;68526;44.600;26.032;2023-04-03T00:03:17;99808.13;;;8.18;79.37
79123;BME280;68526;44.600;26.032;2023-04-03T00:03:32;99808.44;;;8.16;80.13
79123;BME280;68526;44.600;26.032;2023-04-03T00:03:48;99811.81;;;8.13;79.97
79123;BME280;68526;44.600;26.032;2023-04-03T00:04:05;99808.78;;;8.15;79.79
79123;BME280;68526;44.600;26.032;2023-04-03T00:04:21;99812.91;;;8.12;79.82
79123;BME280;68526;44.600;26.032;2023-04-03T00:04:37;99814.84;;;8.12;80.35
79123;BME280;68526;44.600;26.032;2023-04-03T00:04:53;99811.81;;;8.13;79.97
79123;BME280;68526;44.600;26.032;2023-04-03T00:05:09;99809.91;;;8.14;80.35
79123;BME280;68526;44.600;26.032;2023-04-03T00:05:25;99803.94;;;8.12;80.20
79123;BME280;68526;44.600;26.032;2023-04-03T00:05:41;99809.56;;;8.15;80.34
79123;BME280;68526;44.600;26.032;2023-04-03T00:05:57;99809.56;;;8.15;80.10
79123;BME280;68526;44.600;26.032;2023-04-03T00:06:13;99811.50;;;8.15;80.15
79123;BME280;68526;44.600;26.032;2023-04-03T00:06:30;99806.38;;;8.13;80.01
79123;BME280;68526;44.600;26.032;2023-04-03T00:06:46;99812.31;;;8.15;79.84
79123;BME280;68526;44.600;26.032;2023-04-03T00:07:02;99812.63;;;8.14;80.16
79123;BME280;68526;44.600;26.032;2023-04-03T00:07:18;99815.34;;;8.14;80.31
79123;BME280;68526;44.600;26.032;2023-04-03T00:07:33;99815.81;;;8.16;80.06
79123;BME280;68526;44.600;26.032;2023-04-03T00:07:49;99818.09;;;8.14;80.01
79123;BME280;68526;44.600;26.032;2023-04-03T00:08:06;99812.91;;;8.12;79.80
79123;BME280;68526;44.600;26.032;2023-04-03T00:08:23;99798.13;;;8.04;80.08
79123;BME280;68526;44.600;26.032;2023-04-03T00:08:39;99812.91;;;8.12;80.13
79123;BME280;68526;44.600;26.032;2023-04-03T00:08:55;99810.50;;;8.11;79.86
79123;BME280;68526;44.600;26.032;2023-04-03T00:09:12;99806.50;;;8.08;79.69
79123;BME280;68526;44.600;26.032;2023-04-03T00:09:29;99820.63;;;8.10;79.68
79123;BME280;68526;44.600;26.032;2023-04-03T00:09:45;99812.44;;;8.10;80.05
79123;BME280;68526;44.600;26.032;2023-04-03T00:10:01;99813.25;;;8.11;79.84
79123;BME280;68526;44.600;26.032;2023-04-03T00:10:16;99811.63;;;8.10;80.07
79123;BME280;68526;44.600;26.032;2023-04-03T00:10:32;99805.06;;;8.11;79.62
79123;BME280;68526;44.600;26.032;2023-04-03T00:10:49;99811.63;;;8.10;80.15
79123;BME280;68526;44.600;26.032;2023-04-03T00:11:05;99806.97;;;8.10;79.79
79123;BME280;68526;44.600;26.032;2023-04-03T00:11:21;99820.63;;;8.10;79.96
79123;BME280;68526;44.600;26.032;2023-04-03T00:11:37;99811.31;;;8.11;80.17
79123;BME280;68526;44.600;26.032;2023-04-03T00:11:53;99809.38;;;8.12;79.96
79123;BME280;68526;44.600;26.032;2023-04-03T00:12:08;99812.44;;;8.10;79.87
79123;BME280;68526;44.600;26.032;2023-04-03T00:12:26;99816.78;;;8.11;80.28
79123;BME280;68526;44.600;26.032;2023-04-03T00:12:41;99806.97;;;8.10;80.03
79123;BME280;68526;44.600;26.032;2023-04-03T00:12:59;99810.50;;;8.11;80.04
79123;BME280;68526;44.600;26.032;2023-04-03T00:13:15;99811.31;;;8.11;80.03
79123;BME280;68526;44.600;26.032;2023-04-03T00:13:31;99811.63;;;8.10;80.01
79123;BME280;68526;44.600;26.032;2023-04-03T00:13:47;99814.03;;;8.11;80.07
79123;BME280;68526;44.600;26.032;2023-04-03T00:14:04;99815.97;;;8.11;80.27
79123;BME280;68526;44.600;26.032;2023-04-03T00:14:20;99824.16;;;8.11;79.72
79123;BME280;68526;44.600;26.032;2023-04-03T00:14:35;99808.59;;;8.11;80.00
79123;BME280;68526;44.600;26.032;2023-04-03T00:14:51;99813.56;;;8.09;79.97
79123;BME280;68526;44.600;26.032;2023-04-03T00:15:08;99814.69;;;8.08;80.03
79123;BME280;68526;44.600;26.032;2023-04-03T00:15:25;99815.00;;;8.07;79.95
79123;BME280;68526;44.600;26.032;2023-04-03T00:15:41;99820.16;;;8.08;80.35
79123;BME280;68526;44.600;26.032;2023-04-03T00:15:57;99811.97;;;8.08;80.25
79123;BME280;68526;44.600;26.032;2023-04-03T00:16:13;99811.78;;;8.04;79.96
79123;BME280;68526;44.600;26.032;2023-04-03T00:16:28;99815.00;;;8.07;80.17
79123;BME280;68526;44.600;26.032;2023-04-03T00:16:45;99804.09;;;8.07;80.00
79123;BME280;68526;44.600;26.032;2023-04-03T00:17:01;99809.56;;;8.07;80.11
79123;BME280;68526;44.600;26.032;2023-04-03T00:17:17;99806.84;;;8.07;79.93
79123;BME280;68526;44.600;26.032;2023-04-03T00:17:33;99807.63;;;8.07;79.73
79123;BME280;68526;44.600;26.032;2023-04-03T00:17:48;99809.56;;;8.07;80.11
79123;BME280;68526;44.600;26.032;2023-04-03T00:18:04;99807.63;;;8.07;80.05
79123;BME280;68526;44.600;26.032;2023-04-03T00:18:21;99809.56;;;8.07;79.89
79123;BME280;68526;44.600;26.032;2023-04-03T00:18:39;99811.97;;;8.08;79.74
79123;BME280;68526;44.600;26.032;2023-04-03T00:18:54;99806.00;;;8.06;80.10
79123;BME280;68526;44.600;26.032;2023-04-03T00:19:10;99812.75;;;8.09;79.78
79123;BME280;68526;44.600;26.032;2023-04-03T00:19:27;99807.63;;;8.07;80.07
79123;BME280;68526;44.600;26.032;2023-04-03T00:19:43;99814.19;;;8.06;79.90
79123;BME280;68526;44.600;26.032;2023-04-03T00:20:00;99815.81;;;8.07;80.11
79123;BME280;68526;44.600;26.032;2023-04-03T00:20:16;99809.56;;;8.07;79.90
79123;BME280;68526;44.600;26.032;2023-04-03T00:20:32;99810.38;;;8.07;80.01
79123;BME280;68526;44.600;26.032;2023-04-03T00:20:48;99814.19;;;8.06;80.33
79123;BME280;68526;44.600;26.032;2023-04-03T00:21:04;99816.44;;;8.04;80.32
79123;BME280;68526;44.600;26.032;2023-04-03T00:21:20;99807.78;;;8.02;80.05
79123;BME280;68526;44.600;26.032;2023-04-03T00:21:37;99817.25;;;8.04;79.98
79123;BME280;68526;44.600;26.032;2023-04-03T00:21:53;99813.72;;;8.04;80.01
79123;BME280;68526;44.600;26.032;2023-04-03T00:22:09;99815.63;;;8.03;80.41
79123;BME280;68526;44.600;26.032;2023-04-03T00:22:25;99811.13;;;7.99;80.75
79123;BME280;68526;44.600;26.032;2023-04-03T00:22:42;99819.00;;;8.00;80.63
79123;BME280;68526;44.600;26.032;2023-04-03T00:22:57;99817.38;;;7.99;80.71
79123;BME280;68526;44.600;26.032;2023-04-03T00:23:13;99816.28;;;8.00;80.60
79123;BME280;68526;44.600;26.032;2023-04-03T00:23:30;99810.81;;;8.00;80.54
79123;BME280;68526;44.600;26.032;2023-04-03T00:23:46;99813.56;;;8.00;80.39
79123;BME280;68526;44.600;26.032;2023-04-03T00:24:02;99810.81;;;8.00;80.63
79123;BME280;68526;44.600;26.032;2023-04-03T00:24:18;99806.47;;;7.99;80.69
79123;BME280;68526;44.600;26.032;2023-04-03T00:24:34;99817.38;;;7.99;80.63
79123;BME280;68526;44.600;26.032;2023-04-03T00:24:50;99811.91;;;7.99;80.72
79123;BME280;68526;44.600;26.032;2023-04-03T00:25:08;99811.91;;;7.99;80.63
79123;BME280;68526;44.600;26.032;2023-04-03T00:25:24;99799.41;;;7.98;80.23
79123;BME280;68526;44.600;26.032;2023-04-03T00:25:40;99814.16;;;7.97;80.24
79123;BME280;68526;44.600;26.032;2023-04-03T00:25:55;99809.03;;;7.96;80.46
79123;BME280;68526;44.600;26.032;2023-04-03T00:26:12;99820.25;;;7.94;80.50
79123;BME280;68526;44.600;26.032;2023-04-03T00:26:28;99818.03;;;7.96;80.60
79123;BME280;68526;44.600;26.032;2023-04-03T00:26:45;99812.88;;;7.95;80.53
79123;BME280;68526;44.600;26.032;2023-04-03T00:27:00;99811.75;;;7.96;80.46
79123;BME280;68526;44.600;26.032;2023-04-03T00:27:16;99813.69;;;7.95;80.22
79123;BME280;68526;44.600;26.032;2023-04-03T00:27:32;99813.69;;;7.95;80.40
79123;BME280;68526;44.600;26.032;2023-04-03T00:27:48;99811.25;;;7.94;80.31
79123;BME280;68526;44.600;26.032;2023-04-03T00:28:06;99817.50;;;7.94;80.02
79123;BME280;68526;44.600;26.032;2023-04-03T00:28:22;99812.38;;;7.93;80.05
79123;BME280;68526;44.600;26.032;2023-04-03T00:28:38;99818.63;;;7.93;80.44
79123;BME280;68526;44.600;26.032;2023-04-03T00:28:54;99817.50;;;7.94;80.45
79123;BME280;68526;44.600;26.032;2023-04-03T00:29:10;99806.94;;;7.93;80.52
79123;BME280;68526;44.600;26.032;2023-04-03T00:29:25;99797.59;;;7.85;80.37
79123;BME280;68526;44.600;26.032;2023-04-03T00:29:42;99810.44;;;7.93;80.41
79123;BME280;68526;44.600;26.032;2023-04-03T00:29:58;99815.91;;;7.93;80.45
79123;BME280;68526;44.600;26.032;2023-04-03T00:30:16;99805.31;;;7.92;80.44
79123;BME280;68526;44.600;26.032;2023-04-03T00:30:33;99809.66;;;7.93;79.99
79123;BME280;68526;44.600;26.032;2023-04-03T00:30:49;99809.66;;;7.93;79.93
79123;BME280;68526;44.600;26.032;2023-04-03T00:31:06;99808.38;;;7.90;80.22
79123;BME280;68526;44.600;26.032;2023-04-03T00:31:22;99809.19;;;7.91;80.12
79123;BME280;68526;44.600;26.032;2023-04-03T00:31:38;99805.66;;;7.90;80.22
79123;BME280;68526;44.600;26.032;2023-04-03T00:31:53;99809.19;;;7.91;79.83
79123;BME280;68526;44.600;26.032;2023-04-03T00:32:09;99814.63;;;7.91;79.80
79123;BME280;68526;44.600;26.032;2023-04-03T00:32:26;99808.06;;;7.92;80.03
79123;BME280;68526;44.600;26.032;2023-04-03T00:32:42;99803.72;;;7.91;80.16
79123;BME280;68526;44.600;26.032;2023-04-03T00:32:58;99810.78;;;7.92;79.94
79123;BME280;68526;44.600;26.032;2023-04-03T00:33:14;99808.38;;;7.90;80.07
79123;BME280;68526;44.600;26.032;2023-04-03T00:33:30;99815.75;;;7.90;80.18
79123;BME280;68526;44.600;26.032;2023-04-03T00:33:45;99809.50;;;7.89;80.46
79123;BME280;68526;44.600;26.032;2023-04-03T00:34:02;99810.28;;;7.90;80.36
79123;BME280;68526;44.600;26.032;2023-04-03T00:34:18;99812.22;;;7.89;79.88
79123;BME280;68526;44.600;26.032;2023-04-03T00:34:35;99811.72;;;7.87;80.02
79123;BME280;68526;44.600;26.032;2023-04-03T00:34:50;99810.59;;;7.88;80.06
79123;BME280;68526;44.600;26.032;2023-04-03T00:35:07;99815.56;;;7.86;79.92
79123;BME280;68526;44.600;26.032;2023-04-03T00:35:24;99813.63;;;7.87;80.35
79123;BME280;68526;44.600;26.032;2023-04-03T00:35:41;99817.69;;;7.89;79.98
79123;BME280;68526;44.600;26.032;2023-04-03T00:35:57;99812.03;;;7.86;79.85
79123;BME280;68526;44.600;26.032;2023-04-03T00:36:13;99819.59;;;7.89;80.14
79123;BME280;68526;44.600;26.032;2023-04-03T00:36:29;99825.06;;;7.89;79.81
79123;BME280;68526;44.600;26.032;2023-04-03T00:36:45;99816.38;;;7.87;80.01
79123;BME280;68526;44.600;26.032;2023-04-03T00:37:02;99817.16;;;7.87;79.94
79123;BME280;68526;44.600;26.032;2023-04-03T00:37:18;99816.38;;;7.87;79.90
79123;BME280;68526;44.600;26.032;2023-04-03T00:37:34;99817.16;;;7.87;79.91
79123;BME280;68526;44.600;26.032;2023-04-03T00:37:51;99823.44;;;7.88;79.72
79123;BME280;68526;44.600;26.032;2023-04-03T00:38:07;99816.38;;;7.87;79.95
79123;BME280;68526;44.600;26.032;2023-04-03T00:38:24;99814.44;;;7.87;79.65
79123;BME280;68526;44.600;26.032;2023-04-03T00:38:40;99819.59;;;7.89;79.77
79123;BME280;68526;44.600;26.032;2023-04-03T00:38:56;99814.16;;;7.89;80.09
79123;BME280;68526;44.600;26.032;2023-04-03T00:39:11;99811.72;;;7.87;79.54
79123;BME280;68526;44.600;26.032;2023-04-03T00:39:27;99813.63;;;7.87;79.81
79123;BME280;68526;44.600;26.032;2023-04-03T00:39:43;99818.78;;;7.88;79.52
79123;BME280;68526;44.600;26.032;2023-04-03T00:40:00;99816.88;;;7.89;79.62
79123;BME280;68526;44.600;26.032;2023-04-03T00:40:17;99818.78;;;7.88;79.40
79123;BME280;68526;44.600;26.032;2023-04-03T00:40:35;99820.41;;;7.89;79.36
79123;BME280;68526;44.600;26.032;2023-04-03T00:40:51;99812.84;;;7.86;79.86
79123;BME280;68526;44.600;26.032;2023-04-03T00:41:07;99820.69;;;7.88;79.68
79123;BME280;68526;44.600;26.032;2023-04-03T00:41:24;99810.13;;;7.86;79.94
79123;BME280;68526;44.600;26.032;2023-04-03T00:41:40;99819.59;;;7.89;79.77
79123;BME280;68526;44.600;26.032;2023-04-03T00:41:56;99818.28;;;7.86;79.73
79123;BME280;68526;44.600;26.032;2023-04-03T00:42:12;99813.28;;;7.80;79.42
79123;BME280;68526;44.600;26.032;2023-04-03T00:42:28;99824.88;;;7.85;79.88
79123;BME280;68526;44.600;26.032;2023-04-03T00:42:46;99819.75;;;7.84;79.62
79123;BME280;68526;44.600;26.032;2023-04-03T00:43:12;99819.75;;;7.84;79.50
79123;BME280;68526;44.600;26.032;2023-04-03T00:43:30;99813.63;;;7.78;79.51
79123;BME280;68526;44.600;26.032;2023-04-03T00:43:46;99815.69;;;7.81;79.96
79123;BME280;68526;44.600;26.032;2023-04-03T00:44:20;99818.75;;;7.80;79.90
79123;BME280;68526;44.600;26.032;2023-04-03T00:45:34;99822.91;;;7.77;79.64
79123;BME280;68526;44.600;26.032;2023-04-03T00:45:51;99818.06;;;7.74;79.48
79123;BME280;68526;44.600;26.032;2023-04-03T00:46:07;99818.56;;;7.76;79.21
79123;BME280;68526;44.600;26.032;2023-04-03T00:46:23;99821.00;;;7.78;79.26
79123;BME280;68526;44.600;26.032;2023-04-03T00:46:40;99817.75;;;7.75;79.64
79123;BME280;68526;44.600;26.032;2023-04-03T00:46:56;99822.41;;;7.75;79.88
79123;BME280;68526;44.600;26.032;2023-04-03T00:47:14;99823.84;;;7.72;79.42
79123;BME280;68526;44.600;26.032;2023-04-03T00:47:31;99823.06;;;7.72;79.54
79123;BME280;68526;44.600;26.032;2023-04-03T00:47:47;99828.19;;;7.73;79.76
79123;BME280;68526;44.600;26.032;2023-04-03T00:48:05;99821.59;;;7.74;79.54
79123;BME280;68526;44.600;26.032;2023-04-03T00:48:26;99822.72;;;7.73;79.58
79123;BME280;68526;44.600;26.032;2023-04-03T00:48:44;99816.13;;;7.66;79.39
79123;BME280;68526;44.600;26.032;2023-04-03T00:49:01;99823.06;;;7.72;79.48
79123;BME280;68526;44.600;26.032;2023-04-03T00:49:17;99824.34;;;7.74;79.76
79123;BME280;68526;44.600;26.032;2023-04-03T00:49:32;99818.88;;;7.74;79.44
79123;BME280;68526;44.600;26.032;2023-04-03T00:49:50;99830.59;;;7.75;79.50
79123;BME280;68526;44.600;26.032;2023-04-03T00:50:08;99827.06;;;7.74;79.59
79123;BME280;68526;44.600;26.032;2023-04-03T00:50:24;99822.72;;;7.73;79.34
79123;BME280;68526;44.600;26.032;2023-04-03T00:50:41;99822.72;;;7.73;79.85
79123;BME280;68526;44.600;26.032;2023-04-03T00:50:58;99823.34;;;7.70;80.01
79123;BME280;68526;44.600;26.032;2023-04-03T00:51:18;99827.38;;;7.73;79.99
79123;BME280;68526;44.600;26.032;2023-04-03T00:51:35;99824.97;;;7.71;79.90
79123;BME280;68526;44.600;26.032;2023-04-03T00:51:51;99828.19;;;7.73;79.96
79123;BME280;68526;44.600;26.032;2023-04-03T00:52:11;99832.03;;;7.72;79.50
79123;BME280;68526;44.600;26.032;2023-04-03T00:52:31;99824.00;;;7.76;80.03
79123;BME280;68526;44.600;26.032;2023-04-03T00:52:47;99828.66;;;7.75;79.59
79123;BME280;68526;44.600;26.032;2023-04-03T00:53:06;99826.25;;;7.74;79.98
79123;BME280;68526;44.600;26.032;2023-04-03T00:53:28;99832.19;;;7.76;79.81
79123;BME280;68526;44.600;26.032;2023-04-03T00:53:48;99832.50;;;7.74;79.56
79123;BME280;68526;44.600;26.032;2023-04-03T00:54:06;99832.50;;;7.74;80.15
79123;BME280;68526;44.600;26.032;2023-04-03T00:54:25;99830.91;;;7.73;79.91
79123;BME280;68526;44.600;26.032;2023-04-03T00:54:43;99824.66;;;7.73;79.90
79123;BME280;68526;44.600;26.032;2023-04-03T00:55:02;99834.75;;;7.72;79.92
79123;BME280;68526;44.600;26.032;2023-04-03T00:55:19;99823.84;;;7.72;79.69
79123;BME280;68526;44.600;26.032;2023-04-03T00:55:36;99832.03;;;7.72;80.02
79123;BME280;68526;44.600;26.032;2023-04-03T00:55:54;99835.56;;;7.73;79.99
79123;BME280;68526;44.600;26.032;2023-04-03T00:56:15;99834.44;;;7.74;79.68
79123;BME280;68526;44.600;26.032;2023-04-03T00:56:32;99826.59;;;7.72;79.54
79123;BME280;68526;44.600;26.032;2023-04-03T00:56:50;99835.56;;;7.73;79.73
79123;BME280;68526;44.600;26.032;2023-04-03T00:57:07;99827.69;;;7.71;79.65
79123;BME280;68526;44.600;26.032;2023-04-03T00:57:24;99830.44;;;7.71;80.03
79123;BME280;68526;44.600;26.032;2023-04-03T00:57:40;99829.63;;;7.71;79.65
79123;BME280;68526;44.600;26.032;2023-04-03T00:57:58;99829.13;;;7.69;80.18
79123;BME280;68526;44.600;26.032;2023-04-03T00:58:18;99834.56;;;7.69;79.86
79123;BME280;68526;44.600;26.032;2023-04-03T00:58:41;99832.97;;;7.68;79.92
79123;BME280;68526;44.600;26.032;2023-04-03T00:59:00;99825.91;;;7.67;79.62
79123;BME280;68526;44.600;26.032;2023-04-03T00:59:21;99829.44;;;7.67;80.12
79123;BME280;68526;44.600;26.032;2023-04-03T00:59:44;99827.19;;;7.69;80.28
79123;BME280;68526;44.600;26.032;2023-04-03T01:00:04;99831.53;;;7.70;80.09
79123;BME280;68526;44.600;26.032;2023-04-03T01:00:22;99832.66;;;7.69;80.32
79123;BME280;68526;44.600;26.032;2023-04-03T01:00:40;99825.59;;;7.68;80.89
79123;BME280;68526;44.600;26.032;2023-04-03T01:01:03;99836.00;;;7.66;81.06
79123;BME280;68526;44.600;26.032;2023-04-03T01:01:24;99830.25;;;7.68;80.44
79123;BME280;68526;44.600;26.032;2023-04-03T01:01:41;99825.91;;;7.67;80.96
79123;BME280;68526;44.600;26.032;2023-04-03T01:01:57;99827.03;;;7.66;80.95
79123;BME280;68526;44.600;26.032;2023-04-03T01:02:15;99824.59;;;7.64;80.68
79123;BME280;68526;44.600;26.032;2023-04-03T01:02:31;99824.91;;;7.63;81.25
79123;BME280;68526;44.600;26.032;2023-04-03T01:02:47;99831.50;;;7.62;81.23
79123;BME280;68526;44.600;26.032;2023-04-03T01:03:03;99825.72;;;7.63;81.13
79123;BME280;68526;44.600;26.032;2023-04-03T01:03:19;99830.56;;;7.66;81.24
79123;BME280;68526;44.600;26.032;2023-04-03T01:03:36;99828.97;;;7.65;81.21
79123;BME280;68526;44.600;26.032;2023-04-03T01:03:52;99827.03;;;7.66;81.26
79123;BME280;68526;44.600;26.032;2023-04-03T01:04:26;99834.88;;;7.67;80.83
79123;BME280;68526;44.600;26.032;2023-04-03T01:04:43;99835.50;;;7.64;81.52
79123;BME280;68526;44.600;26.032;2023-04-03T01:04:59;99833.56;;;7.65;81.08
79123;BME280;68526;44.600;26.032;2023-04-03T01:05:16;99831.97;;;7.64;81.25
79123;BME280;68526;44.600;26.032;2023-04-03T01:05:33;99830.84;;;7.65;81.12
79123;BME280;68526;44.600;26.032;2023-04-03T01:05:49;99831.38;;;7.67;80.83
79123;BME280;68526;44.600;26.032;2023-04-03T01:06:06;99827.03;;;7.66;81.11
79123;BME280;68526;44.600;26.032;2023-04-03T01:06:26;99830.56;;;7.66;80.94
79123;BME280;68526;44.600;26.032;2023-04-03T01:06:42;99832.97;;;7.68;80.67
79123;BME280;68526;44.600;26.032;2023-04-03T01:07:02;99828.97;;;7.65;81.31
79123;BME280;68526;44.600;26.032;2023-04-03T01:07:22;99830.25;;;7.68;80.85
79123;BME280;68526;44.600;26.032;2023-04-03T01:07:39;99829.44;;;7.67;81.06
79123;BME280;68526;44.600;26.032;2023-04-03T01:07:56;99822.06;;;7.68;81.16
79123;BME280;68526;44.600;26.032;2023-04-03T01:08:13;99828.97;;;7.65;80.97
79123;BME280;68526;44.600;26.032;2023-04-03T01:08:30;99827.31;;;7.64;81.37
79123;BME280;68526;44.600;26.032;2023-04-03T01:08:47;99827.31;;;7.64;81.33
79123;BME280;68526;44.600;26.032;2023-04-03T01:09:04;99822.19;;;7.63;81.09
79123;BME280;68526;44.600;26.032;2023-04-03T01:09:22;99832.47;;;7.66;81.26
79123;BME280;68526;44.600;26.032;2023-04-03T01:09:38;99820.59;;;7.62;80.66
79123;BME280;68526;44.600;26.032;2023-04-03T01:09:58;99825.91;;;7.67;81.13
79123;BME280;68526;44.600;26.032;2023-04-03T01:10:16;99827.03;;;7.66;81.09
79123;BME280;68526;44.600;26.032;2023-04-03T01:10:32;99830.56;;;7.66;80.79
79123;BME280;68526;44.600;26.032;2023-04-03T01:10:49;99819.66;;;7.66;80.82
79123;BME280;68526;44.600;26.032;2023-04-03T01:11:05;99832.16;;;7.67;80.87
79123;BME280;68526;44.600;26.032;2023-04-03T01:11:21;99828.31;;;7.68;80.96
79123;BME280;68526;44.600;26.032;2023-04-03T01:11:37;99819.34;;;7.68;80.91
79123;BME280;68526;44.600;26.032;2023-04-03T01:11:53;99829.44;;;7.67;80.97
79123;BME280;68526;44.600;26.032;2023-04-03T01:12:13;99834.09;;;7.67;81.17
79123;BME280;68526;44.600;26.032;2023-04-03T01:12:32;99826.72;;;7.67;81.04
79123;BME280;68526;44.600;26.032;2023-04-03T01:12:49;99825.09;;;7.66;80.79
79123;BME280;68526;44.600;26.032;2023-04-03T01:13:20;99825.91;;;7.67;80.57
79123;BME280;68526;44.600;26.032;2023-04-03T01:13:36;99832.97;;;7.68;80.40
79123;BME280;68526;44.600;26.032;2023-04-03T01:13:53;99826.22;;;7.65;80.42
79123;BME280;68526;44.600;26.032;2023-04-03T01:14:09;99831.97;;;7.64;81.13
79123;BME280;68526;44.600;26.032;2023-04-03T01:14:24;99831.16;;;7.63;80.88
79123;BME280;68526;44.600;26.032;2023-04-03T01:14:40;99824.91;;;7.63;80.66
79123;BME280;68526;44.600;26.032;2023-04-03T01:14:58;99825.25;;;7.61;80.56
79123;BME280;68526;44.600;26.032;2023-04-03T01:15:16;99835.50;;;7.64;80.47
79123;BME280;68526;44.600;26.032;2023-04-03T01:15:33;99838.53;;;7.63;80.72
79123;BME280;68526;44.600;26.032;2023-04-03T01:15:50;99826.53;;;7.64;80.85
79123;BME280;68526;44.600;26.032;2023-04-03T01:16:06;99831.16;;;7.63;80.63
79123;BME280;68526;44.600;26.032;2023-04-03T01:16:22;99834.22;;;7.62;80.36
79123;BME280;68526;44.600;26.032;2023-04-03T01:16:39;99827.66;;;7.63;80.58
79123;BME280;68526;44.600;26.032;2023-04-03T01:16:55;99828.44;;;7.63;80.31
79123;BME280;68526;44.600;26.032;2023-04-03T01:17:31;99833.41;;;7.61;80.04
79123;BME280;68526;44.600;26.032;2023-04-03T01:17:49;99828.56;;;7.58;80.64
79123;BME280;68526;44.600;26.032;2023-04-03T01:18:09;99830.69;;;7.61;80.18
79123;BME280;68526;44.600;26.032;2023-04-03T01:18:26;99827.97;;;7.61;80.40
79123;BME280;68526;44.600;26.032;2023-04-03T01:18:42;99833.41;;;7.61;80.45
79123;BME280;68526;44.600;26.032;2023-04-03T01:19:00;99832.63;;;7.61;80.28
79123;BME280;68526;44.600;26.032;2023-04-03T01:19:17;99827.47;;;7.59;80.06
79123;BME280;68526;44.600;26.032;2023-04-03T01:19:38;99832.63;;;7.61;80.18
79123;BME280;68526;44.600;26.032;2023-04-03T01:20:11;99836.47;;;7.60;80.02
79123;BME280;68526;44.600;26.032;2023-04-03T01:21:53;99836.94;;;7.62;80.11
79123;BME280;68526;44.600;26.032;2023-04-03T01:22:18;99838.38;;;7.59;80.22
79123;BME280;68526;44.600;26.032;2023-04-03T01:22:39;99848.47;;;7.59;79.69
79123;BME280;68526;44.600;26.032;2023-04-03T01:22:59;99839.19;;;7.60;80.04
79123;BME280;68526;44.600;26.032;2023-04-03T01:23:26;99846.84;;;7.58;79.70
79123;BME280;68526;44.600;26.032;2023-04-03T01:23:57;99839.78;;;7.57;80.20
79123;BME280;68526;44.600;26.032;2023-04-03T01:24:22;99822.59;;;7.47;79.74
79123;BME280;68526;44.600;26.032;2023-04-03T01:24:41;99832.75;;;7.56;80.08
79123;BME280;68526;44.600;26.032;2023-04-03T01:24:57;99835.16;;;7.57;80.03
79123;BME280;68526;44.600;26.032;2023-04-03T01:25:13;99839.78;;;7.57;80.44
79123;BME280;68526;44.600;26.032;2023-04-03T01:25:29;99835.00;;;7.54;80.33
79123;BME280;68526;44.600;26.032;2023-04-03T01:25:48;99843.66;;;7.56;80.04
79123;BME280;68526;44.600;26.032;2023-04-03T01:26:04;99842.84;;;7.55;80.10
79123;BME280;68526;44.600;26.032;2023-04-03T01:26:20;99842.84;;;7.55;80.45
79123;BME280;68526;44.600;26.032;2023-04-03T01:26:36;99838.19;;;7.56;80.46
79123;BME280;68526;44.600;26.032;2023-04-03T01:26:52;99845.38;;;7.52;80.71
79123;BME280;68526;44.600;26.032;2023-04-03T01:27:10;99842.38;;;7.53;80.52
79123;BME280;68526;44.600;26.032;2023-04-03T01:27:27;99839.63;;;7.53;80.58
79123;BME280;68526;44.600;26.032;2023-04-03T01:27:43;99839.63;;;7.53;80.67
79123;BME280;68526;44.600;26.032;2023-04-03T01:27:58;99843.97;;;7.54;80.60
79123;BME280;68526;44.600;26.032;2023-04-03T01:28:18;99846.69;;;7.54;80.18
79123;BME280;68526;44.600;26.032;2023-04-03T01:28:35;99843.16;;;7.54;80.12
79123;BME280;68526;44.600;26.032;2023-04-03T01:28:54;99845.09;;;7.53;80.01
79123;BME280;68526;44.600;26.032;2023-04-03T01:29:10;99846.97;;;7.53;80.60
79123;BME280;68526;44.600;26.032;2023-04-03T01:29:26;99843.78;;;7.50;80.31
79123;BME280;68526;44.600;26.032;2023-04-03T01:29:43;99837.53;;;7.50;80.33
79123;BME280;68526;44.600;26.032;2023-04-03T01:29:59;99844.09;;;7.49;80.45
79123;BME280;68526;44.600;26.032;2023-04-03T01:30:18;99845.69;;;7.50;80.70
79123;BME280;68526;44.600;26.032;2023-04-03T01:30:39;99842.97;;;7.50;80.37
79123;BME280;68526;44.600;26.032;2023-04-03T01:31:02;99846.00;;;7.48;80.61
79123;BME280;68526;44.600;26.032;2023-04-03T01:31:25;99848.41;;;7.50;80.44
79123;BME280;68526;44.600;26.032;2023-04-03T01:31:52;99846.31;;;7.47;80.70
79123;BME280;68526;44.600;26.032;2023-04-03T01:32:08;99845.22;;;7.48;81.05
79123;BME280;68526;44.600;26.032;2023-04-03T01:32:24;99845.50;;;7.46;81.00
79123;BME280;68526;44.600;26.032;2023-04-03T01:32:40;99847.13;;;7.47;80.88
79123;BME280;68526;44.600;26.032;2023-04-03T01:32:55;99851.47;;;7.48;81.01
79123;BME280;68526;44.600;26.032;2023-04-03T01:33:12;99846.81;;;7.49;80.96
79123;BME280;68526;44.600;26.032;2023-04-03T01:33:28;99841.69;;;7.47;80.86
79123;BME280;68526;44.600;26.032;2023-04-03T01:33:45;99843.28;;;7.48;80.57
79123;BME280;68526;44.600;26.032;2023-04-03T01:34:01;99851.47;;;7.48;80.70